Pagrindinis puslapis
METAR-TAF:

METAR-TAF

Oro uostai :

Quinhagak, Aliaska, Jungtinės Amerikos Valstijos

platuma: 59-45-18N, ilguma: 161-50-43W, Aukštis: 13 m

Dabartinis oras

Ataskaita buvo paskelbta 24 minutes, ne 09:56 UTC
Vėjas 21 kt iš Šiaurės
Temperatūra -16°C
Drėgmė 84%
Slėgis 1001 hPa
Matomumas: 16.1 km
Giedras dangus

METAR: PAQH 260956Z AUTO 35021KT 10SM CLR M16/M18 A2956 RMK AO2 PK WND 36026/0904 SLPNO T11561183 FZRANO

Laikas: 01:20 (10:20 UTC)


TAF: trūkstamas

Orai ataskaitas ir orų prognozės (METAR, TAF).

turimą stotys yra geltonos ir raudonos taškus žemėlapyje.

Perkelti pele per norėdami pamatyti stoties vardą.

Tada spustelėkite, norėdami matyti oro stebėjimo ir prognozės.

Norėdami pakeisti žemėlapį: spustelėkite ant žalios mygtukų su juodo kryžiaus žemyn,; žalią mygtuką su brūkšneliu, jei norite nutolinti; arba žalių rodyklių gretimoms žemėlapius.


METAR-TAF: